Weather at Maple Airport [CLOSED]

Public forecast

Using degrees Celsius for public forecast. Weather courtesy of forecast.io.

Closest aviation weather report (METAR) to Maple Airport

Closest report is Toronto Lester B. Pearson International Airport, 11.0 nm (20.3 km) SSW.

2024/05/22 20:00 (retrieved 38 minutes ago)

CYYZ 222000Z 17017G23KT 15SM SCT042TCU BKN160 BKN240 26/18 A2970 RMK TCU3AC2CI2 TCU N-E MOV E SLP058 DENSITY ALT 2300FT

Closest aviation forecast (TAF) to Maple Airport

Closest forecast is Toronto Lester B. Pearson International Airport, 11.0 nm (20.3 km) SSW.

2024/05/22 18:12 Ammendment (retrieved 2 hours ago)

TAF AMD CYYZ 221809Z 2218/2324 22015G28KT P6SM SCT050 BKN100 TEMPO 2218/2220 VRB25G35KT 2SM TSRA BR BKN020 OVC040CB FM222000 22015G25KT P6SM SCT040 TEMPO 2220/2222 P6SM VCTS BKN040CB FM230000 24015G25KT P6SM SCT030 TEMPO 2300/2304 P6SM -SHRA VCTS BKN030CB FM230400 30015G30KT P6SM FEW030 BKN130 FM230800 30010KT P6SM SKC BECMG 2311/2313 25008KT FM231500 26010G20KT P6SM FEW040 BECMG 2322/2324 28010KT RMK NXT FCST BY 222100Z